createdAt,value
2023-05-11T00:01:50.402Z,98334.11
2023-05-11T00:04:53.297Z,98335.30
2023-05-11T00:07:55.141Z,98329.16
2023-05-11T00:10:56.908Z,98327.81
2023-05-11T00:13:58.583Z,98324.02
2023-05-11T00:17:00.305Z,98322.35
2023-05-11T00:20:02.685Z,98322.98
2023-05-11T00:23:04.376Z,98325.66
2023-05-11T00:26:06.126Z,98325.29
2023-05-11T00:29:07.772Z,98327.27
2023-05-11T00:32:09.831Z,98324.63
2023-05-11T00:35:11.829Z,98325.30
2023-05-11T00:38:13.538Z,98328.02
2023-05-11T00:41:15.436Z,98326.89
2023-05-11T00:44:17.221Z,98330.17
2023-05-11T00:47:19.426Z,98329.85
2023-05-11T00:50:21.295Z,98324.32
2023-05-11T00:53:23.224Z,98327.28
2023-05-11T00:56:25.146Z,98324.19
2023-05-11T00:59:26.980Z,98328.89
2023-05-11T01:02:29.132Z,98324.75
2023-05-11T01:05:41.502Z,98326.82
2023-05-11T01:08:46.483Z,98324.66
2023-05-11T01:11:59.735Z,98324.64
2023-05-11T01:15:12.002Z,98327.46
2023-05-11T01:18:26.803Z,98327.96
2023-05-11T01:21:32.734Z,98328.81
2023-05-11T01:25:00.642Z,98324.52
2023-05-11T01:28:11.695Z,98324.70
2023-05-11T01:31:15.443Z,98329.23
2023-05-11T01:34:21.811Z,98328.16
2023-05-11T01:37:26.139Z,98325.66
2023-05-11T01:40:32.080Z,98329.15
2023-05-11T01:43:36.209Z,98328.40
2023-05-11T01:46:39.357Z,98332.07
2023-05-11T01:49:44.049Z,98328.06
2023-05-11T01:52:47.394Z,98330.98
2023-05-11T01:55:51.092Z,98329.73
2023-05-11T01:58:54.809Z,98335.02
2023-05-11T02:01:58.185Z,98336.69
2023-05-11T02:05:01.321Z,98336.17
2023-05-11T02:08:05.485Z,98337.27
2023-05-11T02:11:09.806Z,98339.50
2023-05-11T02:14:12.366Z,98341.09
2023-05-11T02:17:16.106Z,98339.21
2023-05-11T02:20:19.945Z,98340.09
2023-05-11T02:23:23.181Z,98340.48
2023-05-11T02:26:25.233Z,98340.08
2023-05-11T02:29:27.364Z,98343.16
2023-05-11T02:32:32.074Z,98342.61
2023-05-11T02:35:40.265Z,98339.53
2023-05-11T02:38:45.476Z,98337.66
2023-05-11T02:41:54.718Z,98338.90
2023-05-11T02:45:01.910Z,98339.94
2023-05-11T02:48:15.333Z,98339.64
2023-05-11T02:51:21.610Z,98337.52
2023-05-11T02:54:26.679Z,98334.48
2023-05-11T02:57:28.898Z,98331.81
2023-05-11T03:00:32.108Z,98333.80
2023-05-11T03:03:34.086Z,98333.50
2023-05-11T03:06:36.836Z,98332.72
2023-05-11T03:09:39.509Z,98334.77
2023-05-11T03:12:41.949Z,98335.02
2023-05-11T03:15:44.093Z,98336.61
2023-05-11T03:18:48.156Z,98339.06
2023-05-11T03:21:52.084Z,98339.61
2023-05-11T03:24:54.109Z,98339.21
2023-05-11T03:27:58.462Z,98338.05
2023-05-11T03:31:00.538Z,98336.45
2023-05-11T03:34:02.567Z,98335.52
2023-05-11T03:37:09.835Z,98340.15
2023-05-11T03:40:14.344Z,98340.77
2023-05-11T03:43:29.537Z,98336.98
2023-05-11T03:46:32.563Z,98340.20
2023-05-11T03:49:37.495Z,98339.08
2023-05-11T03:52:39.971Z,98342.85
2023-05-11T03:55:41.938Z,98342.06
2023-05-11T03:58:44.147Z,98341.03
2023-05-11T04:01:46.496Z,98336.21
2023-05-11T04:04:49.066Z,98340.61
2023-05-11T04:07:51.374Z,98341.70
2023-05-11T04:10:53.471Z,98344.67
2023-05-11T04:13:55.193Z,98341.98
2023-05-11T04:16:56.938Z,98342.59
2023-05-11T04:19:58.778Z,98346.66
2023-05-11T04:23:00.726Z,98343.91
2023-05-11T04:26:02.447Z,98349.80
2023-05-11T04:29:04.455Z,98352.55
2023-05-11T04:32:06.360Z,98348.52
2023-05-11T04:35:08.466Z,98350.34
2023-05-11T04:38:12.315Z,98350.88
2023-05-11T04:41:14.387Z,98350.78
2023-05-11T04:44:16.674Z,98358.09
2023-05-11T04:47:18.400Z,98354.14
2023-05-11T04:50:21.620Z,98355.63
2023-05-11T04:53:23.492Z,98354.25
2023-05-11T04:56:25.768Z,98354.46
2023-05-11T04:59:27.599Z,98359.06
2023-05-11T05:02:29.411Z,98360.27
2023-05-11T05:05:31.288Z,98362.16
2023-05-11T05:08:33.008Z,98357.84
2023-05-11T05:11:34.825Z,98357.08
2023-05-11T05:14:36.638Z,98358.39
2023-05-11T05:17:39.734Z,98359.14
2023-05-11T05:20:41.656Z,98356.64
2023-05-11T05:23:43.604Z,98357.46
2023-05-11T05:26:46.073Z,98356.92
2023-05-11T05:29:48.193Z,98355.35
2023-05-11T05:32:50.176Z,98356.86
2023-05-11T05:35:51.896Z,98359.97
2023-05-11T05:38:53.934Z,98360.16
2023-05-11T05:41:55.972Z,98359.71
2023-05-11T05:44:58.720Z,98361.31
2023-05-11T05:48:00.758Z,98364.80
2023-05-11T05:51:02.807Z,98363.21
2023-05-11T05:54:04.719Z,98364.61
2023-05-11T05:57:06.747Z,98365.31
2023-05-11T06:00:09.169Z,98366.27
2023-05-11T06:03:14.718Z,98372.02
2023-05-11T06:06:16.794Z,98368.34
2023-05-11T06:09:18.564Z,98371.56
2023-05-11T06:12:20.287Z,98367.99
2023-05-11T06:15:24.534Z,98369.39
2023-05-11T06:18:31.285Z,98370.86
2023-05-11T06:21:33.279Z,98378.83
2023-05-11T06:24:35.011Z,98382.44
2023-05-11T06:27:36.900Z,98390.66
2023-05-11T06:30:39.249Z,98388.25
2023-05-11T06:33:42.384Z,98391.86
2023-05-11T06:36:49.352Z,98389.30
2023-05-11T06:39:51.145Z,98393.23
2023-05-11T06:42:53.149Z,98389.63
2023-05-11T06:45:54.872Z,98391.61
2023-05-11T06:48:56.594Z,98391.89
2023-05-11T06:51:58.917Z,98388.86
2023-05-11T06:55:00.984Z,98388.54
2023-05-11T06:58:02.674Z,98388.07
2023-05-11T07:01:07.508Z,98387.73
2023-05-11T07:04:09.485Z,98385.98
2023-05-11T07:07:11.642Z,98383.35
2023-05-11T07:10:13.413Z,98381.56
2023-05-11T07:13:15.172Z,98379.34
2023-05-11T07:16:17.031Z,98376.21
2023-05-11T07:19:18.823Z,98373.95
2023-05-11T07:22:21.134Z,98373.15
2023-05-11T07:25:22.758Z,98375.58
2023-05-11T07:28:24.651Z,98378.73
2023-05-11T07:31:26.792Z,98377.61
2023-05-11T07:34:28.600Z,98371.77
2023-05-11T07:37:30.445Z,98373.02
2023-05-11T07:40:32.181Z,98374.77
2023-05-11T07:43:34.008Z,98377.70
2023-05-11T07:46:35.963Z,98375.88
2023-05-11T07:49:43.613Z,98375.06
2023-05-11T07:52:45.995Z,98376.38
2023-05-11T07:55:47.819Z,98373.84
2023-05-11T07:58:49.688Z,98373.82
2023-05-11T08:01:51.708Z,98377.22
2023-05-11T08:04:53.503Z,98373.63
2023-05-11T08:07:55.250Z,98371.75
2023-05-11T08:10:57.118Z,98367.87
2023-05-11T08:13:58.943Z,98369.27
2023-05-11T08:17:00.738Z,98364.03
2023-05-11T08:20:06.722Z,98368.31
2023-05-11T08:23:10.197Z,98365.45
2023-05-11T08:26:11.941Z,98360.77
2023-05-11T08:29:13.732Z,98360.36
2023-05-11T08:32:15.692Z,98360.27
2023-05-11T08:35:17.759Z,98358.06
2023-05-11T08:38:19.589Z,98356.41
2023-05-11T08:41:22.362Z,98355.17
2023-05-11T08:44:25.935Z,98358.32
2023-05-11T08:47:28.473Z,98350.73
2023-05-11T08:50:30.522Z,98352.88
2023-05-11T08:53:32.729Z,98354.32
2023-05-11T08:56:36.740Z,98348.00
2023-05-11T08:59:40.978Z,98345.33
2023-05-11T09:02:43.683Z,98353.47
2023-05-11T09:05:46.446Z,98353.45
2023-05-11T09:08:48.753Z,98354.34
2023-05-11T09:11:51.227Z,98350.68
2023-05-11T09:14:53.103Z,98344.86
2023-05-11T09:17:58.135Z,98344.27
2023-05-11T09:21:03.188Z,98341.21
2023-05-11T09:24:05.587Z,98341.05
2023-05-11T09:27:08.779Z,98338.42
2023-05-11T09:30:23.265Z,98337.32
2023-05-11T09:33:25.802Z,98334.91
2023-05-11T09:36:28.989Z,98335.11
2023-05-11T09:39:39.871Z,98336.88
2023-05-11T09:42:44.061Z,98332.23
2023-05-11T09:45:47.825Z,98334.18
2023-05-11T09:48:59.678Z,98332.37
2023-05-11T09:52:01.568Z,98332.57
2023-05-11T09:55:09.447Z,98332.47
2023-05-11T09:58:11.927Z,98327.42
2023-05-11T10:01:16.105Z,98323.80
2023-05-11T10:04:23.690Z,98321.23
2023-05-11T10:07:33.221Z,98317.28
2023-05-11T10:10:37.392Z,98312.80
2023-05-11T10:13:40.002Z,98311.65
2023-05-11T10:16:43.231Z,98314.48
2023-05-11T10:19:46.906Z,98316.56
2023-05-11T10:22:59.058Z,98317.11
2023-05-11T10:26:01.318Z,98311.63
2023-05-11T10:29:03.777Z,98313.11
2023-05-11T10:32:07.407Z,98308.46
2023-05-11T10:35:09.514Z,98310.87
2023-05-11T10:38:12.884Z,98309.72
2023-05-11T10:41:31.497Z,98304.11
2023-05-11T10:45:10.409Z,98302.09
2023-05-11T10:48:49.297Z,98300.11
2023-05-11T10:52:12.612Z,98295.88
2023-05-11T10:55:38.500Z,98293.20
2023-05-11T10:59:01.388Z,98289.89
2023-05-11T11:02:03.551Z,98287.90
2023-05-11T11:05:09.593Z,98286.11
2023-05-11T11:08:11.864Z,98280.22
2023-05-11T11:11:32.002Z,98273.44
2023-05-11T11:14:58.103Z,98268.46
2023-05-11T11:18:23.077Z,98269.89
2023-05-11T11:21:42.032Z,98267.35
2023-05-11T11:24:45.152Z,98268.52
2023-05-11T11:27:54.469Z,98269.10
2023-05-11T11:31:27.472Z,98274.31
2023-05-11T11:34:29.393Z,98273.89
2023-05-11T11:38:04.070Z,98269.08
2023-05-11T11:41:08.571Z,98274.13
2023-05-11T11:44:22.430Z,98276.13
2023-05-11T11:47:26.369Z,98276.70
2023-05-11T11:50:28.317Z,98279.73
2023-05-11T11:53:36.456Z,98283.80
2023-05-11T11:56:40.487Z,98278.41
2023-05-11T11:59:46.712Z,98277.60
2023-05-11T12:02:49.336Z,98275.72
2023-05-11T12:05:59.001Z,98279.45
2023-05-11T12:09:00.934Z,98278.05
2023-05-11T12:12:03.361Z,98277.33
2023-05-11T12:15:06.696Z,98279.85
2023-05-11T12:18:20.512Z,98274.02
2023-05-11T12:21:27.124Z,98273.20
2023-05-11T12:24:29.391Z,98270.88
2023-05-11T12:27:31.485Z,98263.23
2023-05-11T12:30:33.997Z,98265.23
2023-05-11T12:33:45.245Z,98263.08
2023-05-11T12:36:49.030Z,98266.48
2023-05-11T12:39:55.423Z,98261.24
2023-05-11T12:42:58.723Z,98254.25
2023-05-11T12:46:00.764Z,98250.94
2023-05-11T12:49:02.648Z,98252.48
2023-05-11T12:52:07.348Z,98250.73
2023-05-11T12:55:11.261Z,98243.68
2023-05-11T12:58:15.514Z,98240.52
2023-05-11T13:01:23.830Z,98243.17
2023-05-11T13:04:29.854Z,98239.66
2023-05-11T13:07:31.697Z,98232.66
2023-05-11T13:10:33.688Z,98236.91
2023-05-11T13:13:35.443Z,98233.17
2023-05-11T13:16:37.183Z,98231.69
2023-05-11T13:19:39.239Z,98228.45
2023-05-11T13:22:41.358Z,98229.54
2023-05-11T13:25:47.628Z,98223.56
2023-05-11T13:28:58.379Z,98223.89
2023-05-11T13:32:08.202Z,98222.77
2023-05-11T13:35:10.046Z,98223.52
2023-05-11T13:38:12.618Z,98219.95
2023-05-11T13:41:14.434Z,98215.95
2023-05-11T13:44:16.200Z,98214.06
2023-05-11T13:47:17.990Z,98212.86
2023-05-11T13:50:20.029Z,98207.50
2023-05-11T13:53:21.696Z,98210.38
2023-05-11T13:56:23.499Z,98213.05
2023-05-11T13:59:25.502Z,98217.23
2023-05-11T14:02:27.442Z,98216.72
2023-05-11T14:05:29.565Z,98214.73
2023-05-11T14:08:31.327Z,98209.61
2023-05-11T14:11:33.241Z,98208.63
2023-05-11T14:14:35.155Z,98206.59
2023-05-11T14:17:37.766Z,98203.55
2023-05-11T14:20:42.865Z,98201.67
2023-05-11T14:23:57.618Z,98198.64
2023-05-11T14:27:04.420Z,98192.91
2023-05-11T14:30:06.763Z,98197.67
2023-05-11T14:33:08.492Z,98199.39
2023-05-11T14:36:10.389Z,98193.25
2023-05-11T14:39:12.085Z,98190.23
2023-05-11T14:42:14.459Z,98189.71
2023-05-11T14:45:16.321Z,98189.11
2023-05-11T14:48:18.773Z,98184.92
2023-05-11T14:51:20.520Z,98179.37
2023-05-11T14:54:22.212Z,98185.19
2023-05-11T14:57:23.994Z,98181.69
2023-05-11T15:00:25.951Z,98178.36
2023-05-11T15:03:27.796Z,98184.74
2023-05-11T15:06:29.740Z,98176.71
2023-05-11T15:09:31.385Z,98173.98
2023-05-11T15:12:33.177Z,98181.71
2023-05-11T15:15:35.542Z,98182.58
2023-05-11T15:18:37.270Z,98178.44
2023-05-11T15:21:39.005Z,98181.02
2023-05-11T15:24:40.748Z,98178.85
2023-05-11T15:27:42.448Z,98182.58
2023-05-11T15:30:44.368Z,98181.52
2023-05-11T15:33:46.093Z,98185.56
2023-05-11T15:36:49.163Z,98176.39
2023-05-11T15:39:51.058Z,98183.02
2023-05-11T15:42:52.756Z,98186.33
2023-05-11T15:45:54.760Z,98185.93
2023-05-11T15:48:59.055Z,98185.73
2023-05-11T15:52:01.711Z,98186.54
2023-05-11T15:55:04.579Z,98183.70
2023-05-11T15:58:07.712Z,98187.44
2023-05-11T16:01:09.463Z,98189.90
2023-05-11T16:04:11.378Z,98194.40
2023-05-11T16:07:13.226Z,98187.92
2023-05-11T16:10:14.870Z,98188.06
2023-05-11T16:13:16.680Z,98190.69
2023-05-11T16:16:18.471Z,98185.10
2023-05-11T16:19:20.216Z,98189.00
2023-05-11T16:22:21.970Z,98187.59
2023-05-11T16:25:23.678Z,98189.55
2023-05-11T16:28:25.410Z,98197.84
2023-05-11T16:31:27.129Z,98195.27
2023-05-11T16:34:29.046Z,98190.72
2023-05-11T16:37:30.726Z,98193.77
2023-05-11T16:40:32.391Z,98194.38
2023-05-11T16:43:34.260Z,98197.68
2023-05-11T16:46:36.072Z,98193.80
2023-05-11T16:49:37.823Z,98198.48
2023-05-11T16:52:40.807Z,98197.19
2023-05-11T16:55:42.709Z,98199.13
2023-05-11T16:58:44.546Z,98198.90
2023-05-11T17:01:46.384Z,98200.90
2023-05-11T17:04:48.289Z,98199.19
2023-05-11T17:07:50.099Z,98205.55
2023-05-11T17:10:51.912Z,98204.12
2023-05-11T17:13:54.684Z,98200.39
2023-05-11T17:16:56.347Z,98204.92
2023-05-11T17:19:58.189Z,98214.08
2023-05-11T17:22:59.940Z,98212.77
2023-05-11T17:26:11.872Z,98217.67
2023-05-11T17:29:14.453Z,98219.48
2023-05-11T17:32:16.970Z,98219.75
2023-05-11T17:35:19.022Z,98219.91
2023-05-11T17:38:20.991Z,98217.95
2023-05-11T17:41:22.698Z,98222.21
2023-05-11T17:44:24.525Z,98224.77
2023-05-11T17:47:26.354Z,98228.06
2023-05-11T17:50:28.136Z,98229.55
2023-05-11T17:53:30.070Z,98229.96
2023-05-11T17:56:32.171Z,98234.86
2023-05-11T17:59:33.782Z,98234.50
2023-05-11T18:02:35.588Z,98237.27
2023-05-11T18:05:48.415Z,98241.31
2023-05-11T18:08:51.345Z,98249.27
2023-05-11T18:11:53.002Z,98252.23
2023-05-11T18:14:54.832Z,98249.88
2023-05-11T18:17:56.894Z,98257.63
2023-05-11T18:21:03.272Z,98260.52
2023-05-11T18:24:05.579Z,98259.48
2023-05-11T18:27:07.346Z,98262.52
2023-05-11T18:30:09.505Z,98265.23
2023-05-11T18:33:11.625Z,98274.45
2023-05-11T18:36:14.437Z,98275.33
2023-05-11T18:39:16.210Z,98278.94
2023-05-11T18:42:18.483Z,98281.63
2023-05-11T18:45:20.218Z,98282.15
2023-05-11T18:48:22.023Z,98282.33
2023-05-11T18:51:24.672Z,98289.06
2023-05-11T18:54:26.436Z,98293.07
2023-05-11T18:57:28.779Z,98299.44
2023-05-11T19:00:36.241Z,98297.13
2023-05-11T19:03:38.063Z,98294.58
2023-05-11T19:06:39.824Z,98301.56
2023-05-11T19:09:41.599Z,98302.65
2023-05-11T19:12:43.358Z,98308.44
2023-05-11T19:16:07.209Z,98310.84
2023-05-11T19:19:09.148Z,98316.27
2023-05-11T19:22:11.898Z,98321.67
2023-05-11T19:25:13.858Z,98320.00
2023-05-11T19:28:16.850Z,98322.14
2023-05-11T19:31:18.553Z,98323.21
2023-05-11T19:34:20.366Z,98325.79
2023-05-11T19:37:22.266Z,98329.90
2023-05-11T19:43:29.221Z,98334.42
2023-05-11T19:46:31.156Z,98330.98
2023-05-11T19:49:32.915Z,98331.65
2023-05-11T19:52:35.968Z,98328.20
2023-05-11T19:55:39.104Z,98329.51
2023-05-11T19:58:41.134Z,98337.33
2023-05-11T20:01:43.045Z,98336.73
2023-05-11T20:04:45.912Z,98335.27
2023-05-11T20:07:47.590Z,98338.00
2023-05-11T20:10:49.317Z,98340.14
2023-05-11T20:13:53.187Z,98341.69
2023-05-11T20:17:08.889Z,98344.11
2023-05-11T20:20:11.381Z,98344.66
2023-05-11T20:23:13.862Z,98347.02
2023-05-11T20:26:15.783Z,98344.38
2023-05-11T20:29:18.420Z,98347.49
2023-05-11T20:32:20.257Z,98345.55
2023-05-11T20:35:22.417Z,98341.45
2023-05-11T20:38:24.207Z,98345.49
2023-05-11T20:41:28.348Z,98339.94
2023-05-11T20:44:30.076Z,98339.09
2023-05-11T20:47:31.832Z,98340.33
2023-05-11T20:50:33.599Z,98337.77
2023-05-11T20:53:35.315Z,98338.09
2023-05-11T20:56:37.031Z,98337.27
2023-05-11T21:02:44.397Z,98336.10
2023-05-11T21:05:46.308Z,98330.44
2023-05-11T21:08:48.839Z,98329.13
2023-05-11T21:11:50.548Z,98329.08
2023-05-11T21:14:52.900Z,98334.88
2023-05-11T21:17:56.054Z,98334.80
2023-05-11T21:20:58.548Z,98334.44
2023-05-11T21:24:00.620Z,98337.98
2023-05-11T21:27:02.889Z,98342.29
2023-05-11T21:30:04.973Z,98344.63
2023-05-11T21:33:06.690Z,98343.34
2023-05-11T21:36:08.615Z,98342.85
2023-05-11T21:39:12.425Z,98343.92
2023-05-11T21:42:14.625Z,98342.59
2023-05-11T21:45:19.111Z,98344.45
2023-05-11T21:48:21.506Z,98342.81
2023-05-11T21:51:23.242Z,98342.85
2023-05-11T21:54:25.003Z,98341.90
2023-05-11T21:57:26.664Z,98342.42
2023-05-11T22:00:28.422Z,98343.81
2023-05-11T22:03:31.031Z,98348.80
2023-05-11T22:06:32.772Z,98347.30
2023-05-11T22:09:34.479Z,98349.70
2023-05-11T22:12:36.292Z,98349.98
2023-05-11T22:15:37.984Z,98346.31
2023-05-11T22:18:39.925Z,98348.13
2023-05-11T22:21:41.671Z,98350.59
2023-05-11T22:24:43.560Z,98350.58
2023-05-11T22:27:45.274Z,98348.75
2023-05-11T22:30:47.031Z,98354.75
2023-05-11T22:33:48.717Z,98349.20
2023-05-11T22:36:50.380Z,98350.41
2023-05-11T22:39:53.574Z,98355.51
2023-05-11T22:42:55.317Z,98355.89
2023-05-11T22:45:56.969Z,98357.64
2023-05-11T22:48:58.743Z,98357.52
2023-05-11T22:52:00.686Z,98359.48
2023-05-11T22:55:03.390Z,98355.42
2023-05-11T22:58:05.094Z,98355.56
2023-05-11T23:01:06.881Z,98352.98
2023-05-11T23:04:09.032Z,98349.88
2023-05-11T23:07:12.086Z,98351.20
2023-05-11T23:10:13.985Z,98346.83
2023-05-11T23:13:15.676Z,98350.75
2023-05-11T23:16:18.589Z,98346.38
2023-05-11T23:19:20.522Z,98344.02
2023-05-11T23:22:22.199Z,98345.26
2023-05-11T23:25:25.277Z,98340.55
2023-05-11T23:28:26.968Z,98343.67
2023-05-11T23:31:28.864Z,98340.73
2023-05-11T23:34:30.569Z,98341.79
2023-05-11T23:37:32.479Z,98336.46
2023-05-11T23:40:34.206Z,98337.70
2023-05-11T23:43:36.626Z,98337.34
2023-05-11T23:46:38.386Z,98336.95
2023-05-11T23:49:40.383Z,98332.06
2023-05-11T23:52:42.202Z,98330.80
2023-05-11T23:55:47.360Z,98337.59
2023-05-11T23:58:49.856Z,98339.19
